Time;durP1;ratioP1;P1;durP2;ratioP2;P2;SDS_P1;SDS_P2;PMS_P1;PMS_P2;Temp;Humidity;BMP_temperature;BMP_pressure;BME280_temperature;BME280_humidity;BME280_pressure;Samples;Min_cycle;Max_cycle;Signal;HPM_P1;HPM_P2
2022/06/18 00:00:28;;;;;;;14.63;12.90;;;;;;;20.61;78.53;99055.94;4974364;28;20199;-87
2022/06/18 00:02:53;;;;;;;14.53;12.83;;;;;;;20.22;78.32;98956.56;4974441;28;20306;-87
2022/06/18 00:05:21;;;;;;;13.97;12.57;;;;;;;22.67;78.41;99373.09;4974687;28;20548;-86
2022/06/18 00:07:53;;;;;;;14.57;13.07;;;;;;;22.61;78.71;99370.50;4974564;28;20164;-86
2022/06/18 00:10:26;;;;;;;15.83;14.03;;;;;;;22.52;79.54;99367.97;4974467;28;20238;-86
2022/06/18 00:15:38;;;;;;;16.43;14.73;;;;;;;21.38;79.75;99148.44;4974002;28;20254;-84
2022/06/18 00:18:11;;;;;;;20.20;14.90;;;;;;;22.29;79.83;99292.41;4973956;28;20554;-84
2022/06/18 00:20:38;;;;;;;16.13;14.40;;;;;;;22.56;81.22;99358.47;4973908;28;20171;-84
2022/06/18 00:23:10;;;;;;;16.60;14.80;;;;;;;22.49;81.66;99355.09;4973656;28;20168;-85
2022/06/18 00:25:38;;;;;;;16.20;14.50;;;;;;;22.51;81.89;99350.78;4973929;28;20164;-84
2022/06/18 00:28:11;;;;;;;17.27;15.47;;;;;;;21.69;80.52;99193.81;4973400;28;20194;-84
2022/06/18 00:30:36;;;;;;;15.57;13.97;;;;;;;20.62;80.06;99008.81;4973571;28;20218;-84
2022/06/18 00:33:02;;;;;;;16.57;14.23;;;;;;;22.60;80.05;99339.53;4973740;28;20160;-85
2022/06/18 00:35:28;;;;;;;16.00;14.13;;;;;;;22.40;80.32;99331.91;4973648;28;20330;-84
2022/06/18 00:37:58;;;;;;;16.57;14.27;;;;;;;20.48;81.28;99031.97;4973842;28;20639;-85
2022/06/18 00:40:30;;;;;;;18.60;13.97;;;;;;;22.21;81.87;99327.69;4973390;28;20160;-85
2022/06/18 00:42:59;;;;;;;15.50;13.83;;;;;;;22.21;82.10;99332.84;4973832;28;20168;-84
2022/06/18 00:45:28;;;;;;;16.60;14.27;;;;;;;22.09;82.99;99304.53;4973691;28;20156;-85
2022/06/18 00:48:18;;;;;;;16.93;14.70;;;;;;;19.87;83.83;98930.06;4973619;28;20164;-84
2022/06/18 00:50:50;;;;;;;16.43;14.73;;;;;;;22.08;83.96;99316.59;4913934;29;20200;-84
2022/06/18 00:53:22;;;;;;;17.47;15.00;;;;;;;20.49;83.17;99038.00;4914042;29;20194;-84
2022/06/18 00:55:56;;;;;;;17.90;15.00;;;;;;;22.11;83.12;99313.13;4914297;29;20686;-84
2022/06/18 00:58:28;;;;;;;17.83;15.33;;;;;;;21.86;82.59;99270.22;4913888;29;20669;-84
2022/06/18 01:00:55;;;;;;;18.53;15.50;;;;;;;21.63;83.02;99219.63;4913846;29;20170;-83
2022/06/18 01:03:43;;;;;;;18.37;14.80;;;;;;;22.29;82.75;99315.63;4913883;29;20229;-84
2022/06/18 01:06:14;;;;;;;18.97;15.33;;;;;;;21.75;81.77;99229.84;4913779;29;20201;-84
2022/06/18 01:08:41;;;;;;;18.83;15.17;;;;;;;22.26;82.08;99310.47;4913618;29;20204;-85
2022/06/18 01:11:25;;;;;;;17.33;14.80;;;;;;;21.85;82.06;99232.41;4913698;29;20170;-84
2022/06/18 01:13:52;;;;;;;21.03;16.07;;;;;;;22.22;81.83;99299.31;4913462;29;20687;-85
2022/06/18 01:16:18;;;;;;;20.50;16.03;;;;;;;21.45;82.23;99178.44;4913812;29;20166;-85
2022/06/18 01:18:45;;;;;;;20.83;16.67;;;;;;;21.03;82.26;99124.47;4913537;29;20170;-84
2022/06/18 01:21:29;;;;;;;21.57;16.53;;;;;;;22.05;82.26;99303.69;4913432;29;20189;-83
2022/06/18 01:24:10;;;;;;;21.57;16.67;;;;;;;21.60;85.02;99304.66;4913372;29;20189;-84
2022/06/18 01:26:36;;;;;;;21.37;16.73;;;;;;;21.15;86.59;99258.38;4913444;29;20174;-84
2022/06/18 01:29:02;;;;;;;17.47;15.47;;;;;;;20.49;86.38;99133.97;4972717;28;20294;-85
2022/06/18 01:31:28;;;;;;;19.87;15.37;;;;;;;20.83;85.33;99165.69;4972847;28;20172;-85
2022/06/18 01:33:54;;;;;;;18.97;15.67;;;;;;;21.61;86.21;99311.53;4972774;28;20219;-84
2022/06/18 01:36:19;;;;;;;21.47;15.37;;;;;;;21.05;86.19;99215.41;4973435;28;20562;-85
2022/06/18 01:38:46;;;;;;;17.97;15.33;;;;;;;21.12;85.37;99212.84;4973061;28;20168;-85
2022/06/18 01:44:04;;;;;;;20.23;16.27;;;;;;;21.77;86.53;99307.19;4973126;28;20211;-85
2022/06/18 01:46:31;;;;;;;18.03;15.53;;;;;;;21.62;87.12;99287.47;4972834;28;20175;-85
2022/06/18 01:48:58;;;;;;;19.73;15.70;;;;;;;21.57;86.40;99286.63;4973445;28;20174;-86
2022/06/18 01:51:30;;;;;;;17.13;15.20;;;;;;;20.23;85.21;99050.81;4974028;28;20168;-85
2022/06/18 01:54:02;;;;;;;16.37;14.53;;;;;;;20.20;87.47;99127.94;4958353;28;20707;-85
2022/06/18 01:56:35;;;;;;;19.47;14.47;;;;;;;19.95;87.98;99100.50;4976901;28;20196;-86
2022/06/18 01:59:08;;;;;;;18.17;15.37;;;;;;;19.53;90.35;99064.47;4976636;28;20530;-84
2022/06/18 02:01:39;;;;;;;19.23;15.27;;;;;;;20.40;92.03;99266.84;4976570;28;20166;-85
2022/06/18 02:04:05;;;;;;;17.87;15.67;;;;;;;18.85;94.61;99032.53;4976700;28;20176;-85
2022/06/18 02:06:34;;;;;;;17.63;15.50;;;;;;;19.59;95.25;99160.34;4976445;28;20172;-85
2022/06/18 02:09:24;;;;;;;16.90;14.30;;;;;;;20.01;93.47;99260.72;4976563;28;20164;-84
2022/06/18 02:11:50;;;;;;;16.73;14.30;;;;;;;19.81;94.08;99218.66;4956581;29;20214;-84
2022/06/18 02:14:15;;;;;;;20.73;14.07;;;;;;;20.24;93.71;99294.25;4955784;29;20688;-85
2022/06/18 02:16:44;;;;;;;16.73;13.70;;;;;;;18.69;92.89;99030.72;4956768;29;20199;-84
2022/06/18 02:19:11;;;;;;;19.83;14.37;;;;;;;19.57;92.57;99161.19;4973929;29;20243;-84
2022/06/18 02:21:41;;;;;;;18.60;13.60;;;;;;;19.25;93.13;99128.53;4974071;29;20165;-84
2022/06/18 02:24:07;;;;;;;17.37;14.13;;;;;;;19.21;93.89;99124.22;4955404;29;20670;-84
2022/06/18 02:26:35;;;;;;;17.90;14.43;;;;;;;20.22;95.25;99305.31;4955065;29;20205;-84
2022/06/18 02:29:01;;;;;;;17.60;14.47;;;;;;;20.16;95.22;99306.16;4954758;29;20196;-85
2022/06/18 02:31:32;;;;;;;18.17;13.93;;;;;;;18.20;94.84;98965.47;4954890;29;20537;-85
2022/06/18 02:34:08;;;;;;;19.43;14.50;;;;;;;18.55;95.01;99021.25;4954901;29;20735;-85
2022/06/18 02:36:36;;;;;;;16.60;14.13;;;;;;;19.88;95.88;99252.94;4955710;29;20197;-85
2022/06/18 02:39:07;;;;;;;18.63;14.30;;;;;;;20.05;97.55;99301.84;4955456;29;20225;-85
2022/06/18 02:41:34;;;;;;;19.13;14.23;;;;;;;20.11;97.60;99305.28;4954546;29;20169;-84
2022/06/18 02:44:00;;;;;;;15.90;14.17;;;;;;;18.52;96.78;99018.66;4955067;29;20195;-85
2022/06/18 02:46:26;;;;;;;19.77;14.03;;;;;;;20.35;96.29;99295.13;4954785;29;20638;-85
2022/06/18 02:48:52;;;;;;;17.73;14.03;;;;;;;19.74;96.01;99186.09;4958504;28;20723;-84
2022/06/18 02:51:18;;;;;;;17.63;14.30;;;;;;;19.25;96.06;99100.28;4975608;28;20168;-85
2022/06/18 02:53:44;;;;;;;17.80;13.70;;;;;;;20.51;95.86;99299.47;4980199;28;20194;-83
2022/06/18 02:56:14;;;;;;;16.93;14.00;;;;;;;19.91;96.20;99206.72;4981648;28;20681;-84
2022/06/18 02:58:43;;;;;;;17.93;14.27;;;;;;;20.84;94.14;99308.94;4977027;28;20183;-84
2022/06/18 03:01:22;;;;;;;16.53;14.00;;;;;;;19.71;94.85;99162.09;4976444;28;20187;-84
2022/06/18 03:03:51;;;;;;;21.10;14.50;;;;;;;20.38;96.86;99315.69;4975185;28;20183;-85
2022/06/18 03:06:18;;;;;;;18.20;14.47;;;;;;;20.52;96.27;99316.59;4976251;28;20203;-84
2022/06/18 03:08:46;;;;;;;17.90;13.70;;;;;;;20.73;94.90;99320.06;4975657;28;20602;-85
2022/06/18 03:13:57;;;;;;;16.07;13.10;;;;;;;20.71;93.53;99312.34;4975796;28;20592;-85
2022/06/18 03:16:23;;;;;;;16.60;13.83;;;;;;;20.55;93.51;99300.31;4975569;28;20172;-84
2022/06/18 03:18:52;;;;;;;18.73;14.93;;;;;;;20.56;91.44;99260.88;4974640;28;20207;-85
2022/06/18 03:21:39;;;;;;;50.53;29.93;;;;;;;21.17;90.12;99327.03;4975509;28;20171;-83
2022/06/18 03:24:05;;;;;;;82.40;43.53;;;;;;;20.27;89.10;99149.41;4974140;28;20586;-84
2022/06/18 03:26:31;;;;;;;121.40;63.00;;;;;;;21.24;88.00;99283.22;4975609;28;20198;-84
2022/06/18 03:28:57;;;;;;;152.77;78.07;;;;;;;21.43;88.28;99332.16;4975445;28;20187;-84
2022/06/18 03:31:23;;;;;;;155.80;80.73;;;;;;;19.47;90.38;99069.59;4975851;28;20527;-84
2022/06/18 03:33:49;;;;;;;58.83;33.27;;;;;;;19.26;91.89;99091.72;4975406;28;20192;-84
2022/06/18 03:36:19;;;;;;;43.57;26.83;;;;;;;21.13;90.73;99327.00;4975663;28;20160;-84
2022/06/18 03:38:45;;;;;;;28.97;18.93;;;;;;;20.29;89.32;99161.41;4975790;28;20715;-85
2022/06/18 03:41:12;;;;;;;23.53;17.00;;;;;;;21.27;90.02;99322.72;4975595;28;20232;-85
2022/06/18 03:43:38;;;;;;;22.80;16.03;;;;;;;20.36;89.71;99167.41;4975557;28;20216;-85
2022/06/18 03:46:07;;;;;;;20.80;16.40;;;;;;;21.14;88.50;99257.50;4975479;28;20687;-85
2022/06/18 03:48:46;;;;;;;90.53;48.63;;;;;;;21.32;87.61;99243.72;4975893;28;20164;-85
2022/06/18 03:51:13;;;;;;;103.93;57.63;;;;;;;21.29;85.91;99205.09;4975151;28;20230;-83
2022/06/18 03:53:39;;;;;;;55.07;35.83;;;;;;;20.26;85.94;99024.28;4957826;28;20266;-84
2022/06/18 03:56:05;;;;;;;31.63;22.40;;;;;;;21.29;85.31;99187.06;4975596;28;20246;-86
2022/06/18 03:58:30;;;;;;;32.40;21.53;;;;;;;21.81;84.61;99257.31;4974237;28;20187;-85
2022/06/18 04:00:56;;;;;;;46.13;31.40;;;;;;;21.95;82.77;99234.13;4974612;28;20581;-85
2022/06/18 04:03:22;;;;;;;68.40;41.70;;;;;;;22.70;81.53;99328.31;4973146;28;20326;-86
2022/06/18 04:05:47;;;;;;;77.33;44.97;;;;;;;22.06;80.86;99227.19;4974502;28;20168;-84
2022/06/18 04:08:17;;;;;;;75.20;41.60;;;;;;;22.69;80.25;99326.63;4974129;28;20175;-85
2022/06/18 04:10:43;;;;;;;31.33;24.10;;;;;;;22.85;80.78;99341.16;4974405;28;20640;-85
2022/06/18 04:13:08;;;;;;;29.17;21.73;;;;;;;22.05;81.60;99228.06;4974854;28;20164;-85
2022/06/18 04:15:35;;;;;;;26.13;20.20;;;;;;;20.39;80.96;98923.13;4973831;28;20630;-84
2022/06/18 04:18:01;;;;;;;20.50;16.90;;;;;;;20.67;80.99;98998.47;4972993;28;20172;-86
2022/06/18 04:20:29;;;;;;;18.10;15.73;;;;;;;22.37;83.00;99333.63;4974227;28;20218;-87
2022/06/18 04:22:54;;;;;;;21.33;16.33;;;;;;;22.53;83.97;99336.13;4974887;28;20180;-87
2022/06/18 04:25:20;;;;;;;16.70;14.57;;;;;;;22.67;82.37;99333.50;4974496;28;20630;-84
2022/06/18 04:27:46;;;;;;;17.07;13.73;;;;;;;22.04;79.38;99218.59;4974562;28;20165;-85
2022/06/18 04:30:13;;;;;;;15.40;12.97;;;;;;;22.51;78.85;99334.44;4974050;28;20529;-86
2022/06/18 04:32:39;;;;;;;17.10;12.93;;;;;;;22.21;78.93;99313.09;4975524;28;20164;-86
2022/06/18 04:35:06;;;;;;;14.90;12.70;;;;;;;22.39;77.89;99337.09;4974936;28;20582;-85
2022/06/18 04:37:32;;;;;;;18.30;13.90;;;;;;;20.83;78.56;99057.63;4956306;28;20179;-85
2022/06/18 04:39:58;;;;;;;16.03;13.40;;;;;;;20.32;78.17;99006.28;4975281;28;20176;-83
2022/06/18 04:42:25;;;;;;;14.90;13.40;;;;;;;22.38;78.03;99343.97;4973318;28;20168;-85
2022/06/18 04:44:51;;;;;;;15.23;13.40;;;;;;;19.76;77.76;98906.97;4973361;28;20182;-84
2022/06/18 04:47:16;;;;;;;14.07;12.50;;;;;;;21.69;77.16;99259.97;4973307;28;20676;-85
2022/06/18 04:49:42;;;;;;;15.07;13.00;;;;;;;21.27;76.12;99157.03;4973449;28;20195;-85
2022/06/18 04:52:07;;;;;;;16.57;13.17;;;;;;;21.69;77.34;99267.69;4973908;28;20601;-85
2022/06/18 04:54:32;;;;;;;16.03;13.73;;;;;;;20.34;78.55;99005.44;4973098;28;20607;-84
2022/06/18 04:56:58;;;;;;;16.83;13.03;;;;;;;19.07;78.45;98827.34;4972795;28;20575;-85
2022/06/18 04:59:24;;;;;;;14.37;12.70;;;;;;;20.74;77.40;99126.25;4973294;28;20174;-84
2022/06/18 05:02:01;;;;;;;16.30;13.30;;;;;;;21.71;79.34;99331.25;4968574;28;20224;-84
2022/06/18 05:04:26;;;;;;;17.17;13.70;;;;;;;22.01;79.12;99355.25;4953862;29;20156;-84
2022/06/18 05:06:51;;;;;;;17.73;13.43;;;;;;;22.33;77.68;99349.13;4953910;29;20711;-85
2022/06/18 05:09:18;;;;;;;15.77;13.50;;;;;;;21.49;76.84;99208.50;4955492;29;20615;-84
2022/06/18 05:11:44;;;;;;;14.73;13.10;;;;;;;21.29;77.69;99174.19;4954983;29;20649;-85
2022/06/18 05:14:09;;;;;;;15.57;13.80;;;;;;;21.77;77.31;99230.72;4954245;29;20184;-85
2022/06/18 05:16:35;;;;;;;17.13;14.23;;;;;;;22.34;77.63;99340.53;4955075;29;20175;-85
2022/06/18 05:19:00;;;;;;;16.80;14.27;;;;;;;20.78;77.53;99115.94;4953273;29;20227;-84
2022/06/18 05:21:26;;;;;;;16.90;13.63;;;;;;;21.70;78.77;99283.13;4953666;29;20175;-84
2022/06/18 05:23:51;;;;;;;16.07;14.07;;;;;;;21.00;79.25;99175.97;4955091;29;20184;-86
2022/06/18 05:26:16;;;;;;;18.13;13.67;;;;;;;21.53;78.47;99251.44;4954529;29;20181;-87
2022/06/18 05:28:42;;;;;;;15.60;13.87;;;;;;;21.37;77.25;99171.63;4958199;28;20548;-87
2022/06/18 05:31:08;;;;;;;15.87;13.43;;;;;;;22.57;77.33;99396.34;4957746;29;20169;-85
2022/06/18 05:33:33;;;;;;;14.77;13.17;;;;;;;20.55;77.98;99084.25;4956355;29;20176;-87
2022/06/18 05:35:58;;;;;;;14.97;13.47;;;;;;;20.51;78.28;99059.41;4957394;29;20192;-91
2022/06/18 05:38:24;;;;;;;17.60;13.30;;;;;;;20.92;77.16;99111.63;4958691;29;20176;-86
2022/06/18 05:40:50;;;;;;;15.70;13.50;;;;;;;21.91;77.40;99278.81;4958272;29;20231;-86
2022/06/18 05:43:16;;;;;;;15.20;13.50;;;;;;;19.42;76.54;98872.72;4958085;29;20165;-86
2022/06/18 05:45:42;;;;;;;14.83;13.23;;;;;;;22.46;77.44;99388.63;4958132;29;20168;-86
2022/06/18 05:48:09;;;;;;;15.53;13.20;;;;;;;22.14;74.80;99269.28;4957724;29;20165;-86
2022/06/18 05:50:34;;;;;;;17.73;13.50;;;;;;;21.34;76.41;99177.66;4958483;29;20231;-86
2022/06/18 05:53:00;;;;;;;22.27;13.43;;;;;;;20.66;76.47;99043.09;4957488;29;20161;-88
2022/06/18 05:55:25;;;;;;;18.87;14.33;;;;;;;22.29;75.60;99276.94;4955739;29;20220;-85
2022/06/18 05:57:54;;;;;;;15.60;13.47;;;;;;;20.83;75.48;99060.19;4957197;28;20204;-86
2022/06/18 06:00:25;;;;;;;15.47;13.27;;;;;;;23.10;73.69;99394.31;4965968;28;20654;-86
2022/06/18 06:02:50;;;;;;;15.83;13.37;;;;;;;23.08;74.50;99395.22;4951919;28;20782;-86
2022/06/18 06:05:16;;;;;;;14.03;12.47;;;;;;;22.60;73.28;99280.19;4977014;28;20237;-86
2022/06/18 06:07:44;;;;;;;15.63;12.77;;;;;;;22.65;71.38;99276.75;4977036;28;20644;-86
2022/06/18 06:13:08;;;;;;;13.27;10.87;;;;;;;22.24;66.66;99139.41;4986430;28;20179;-86
2022/06/18 06:15:38;;;;;;;13.60;10.90;;;;;;;23.76;64.21;99299.88;4982939;28;20208;-87
2022/06/18 06:18:05;;;;;;;12.87;11.20;;;;;;;24.44;63.95;99394.84;4991359;28;20187;-85
2022/06/18 06:20:34;;;;;;;14.27;11.40;;;;;;;24.59;62.70;99388.59;4992203;28;20238;-85
2022/06/18 06:23:00;;;;;;;13.87;11.13;;;;;;;23.83;61.90;99233.44;4999728;28;20221;-86
2022/06/18 06:25:25;;;;;;;12.17;10.97;;;;;;;23.96;62.52;99255.69;5018415;28;20183;-83
2022/06/18 06:27:51;;;;;;;15.03;11.07;;;;;;;24.94;63.61;99385.59;5012115;28;20246;-84
2022/06/18 06:30:17;;;;;;;13.97;10.63;;;;;;;24.74;60.40;99286.56;5002417;28;20704;-84
2022/06/18 06:32:44;;;;;;;12.10;10.77;;;;;;;22.87;59.84;98994.31;4999448;28;20166;-84
2022/06/18 06:35:09;;;;;;;11.93;10.20;;;;;;;22.81;59.45;99030.53;4996733;28;20258;-84
2022/06/18 06:37:35;;;;;;;12.33;10.40;;;;;;;24.78;58.51;99291.66;4995553;28;20171;-86
2022/06/18 06:40:01;;;;;;;12.77;10.47;;;;;;;23.52;59.35;99142.50;4993213;28;20275;-87
2022/06/18 06:42:26;;;;;;;12.67;10.23;;;;;;;23.38;57.55;99036.72;4995335;28;20164;-86
2022/06/18 06:44:52;;;;;;;13.83;10.73;;;;;;;23.14;56.89;98940.59;4995576;28;20167;-84
2022/06/18 06:47:17;;;;;;;10.37;9.30;;;;;;;22.21;58.26;98918.50;4995242;28;20205;-85
2022/06/18 06:49:43;;;;;;;14.00;8.87;;;;;;;24.30;58.44;99279.44;4993471;28;20171;-84
2022/06/18 06:52:12;;;;;;;14.00;9.47;;;;;;;24.14;58.95;99259.81;4993714;28;20179;-86
2022/06/18 06:54:37;;;;;;;10.63;9.43;;;;;;;24.98;57.53;99395.88;4994882;28;20636;-84
2022/06/18 06:57:22;;;;;;;11.63;9.93;;;;;;;24.33;57.55;99319.06;4994802;28;20164;-85
2022/06/18 06:59:47;;;;;;;10.93;9.63;;;;;;;23.34;57.65;99192.63;4993202;28;20178;-85
2022/06/18 07:02:20;;;;;;;10.90;9.67;;;;;;;24.66;59.04;99403.22;4987420;28;20224;-83
2022/06/18 07:04:47;;;;;;;12.27;9.40;;;;;;;23.54;58.03;99124.41;4977978;28;20199;-85
2022/06/18 07:07:14;;;;;;;12.10;9.10;;;;;;;24.75;58.85;99395.28;4976201;28;20588;-86
2022/06/18 07:09:40;;;;;;;11.70;9.07;;;;;;;23.03;58.32;99084.50;4975408;28;20627;-86
2022/06/18 07:12:08;;;;;;;10.27;9.27;;;;;;;24.93;58.64;99394.22;4975928;28;20247;-85
2022/06/18 07:14:35;;;;;;;10.60;8.90;;;;;;;24.89;57.33;99297.56;4974965;28;20191;-85
2022/06/18 07:17:01;;;;;;;11.13;8.93;;;;;;;25.46;56.95;99385.66;4975406;28;20172;-84
2022/06/18 07:19:26;;;;;;;10.77;8.60;;;;;;;24.58;56.30;99226.41;4974475;28;20247;-84
2022/06/18 07:21:52;;;;;;;10.43;8.57;;;;;;;25.18;58.12;99386.09;4967575;28;20717;-84
2022/06/18 07:24:19;;;;;;;10.83;8.97;;;;;;;25.06;58.75;99341.34;4974905;28;20251;-85
2022/06/18 07:26:46;;;;;;;12.03;9.53;;;;;;;25.34;57.86;99386.69;4975652;28;20597;-84
2022/06/18 07:29:13;;;;;;;12.27;9.07;;;;;;;25.07;58.60;99382.81;4976701;28;20174;-85
2022/06/18 07:31:39;;;;;;;10.80;9.17;;;;;;;25.11;58.98;99393.94;4974598;28;20188;-86
2022/06/18 07:34:06;;;;;;;12.03;9.03;;;;;;;23.37;58.84;99145.25;4974729;28;20203;-84
2022/06/18 07:36:32;;;;;;;10.87;9.47;;;;;;;24.03;61.00;99314.25;4974416;28;20172;-85
2022/06/18 07:39:00;;;;;;;11.23;9.30;;;;;;;23.96;61.10;99289.31;4957221;28;20171;-85
2022/06/18 07:41:34;;;;;;;10.87;9.60;;;;;;;24.35;61.24;99399.28;4972600;28;20195;-85
2022/06/18 07:43:59;;;;;;;10.40;9.37;;;;;;;23.57;59.87;99259.59;4973426;28;20192;-85
2022/06/18 07:46:25;;;;;;;11.40;9.30;;;;;;;23.40;59.18;99207.25;4973362;28;20204;-84
2022/06/18 07:48:51;;;;;;;11.23;9.50;;;;;;;24.35;59.45;99352.69;4974860;28;20247;-84
2022/06/18 07:51:16;;;;;;;10.67;9.57;;;;;;;23.24;57.59;99143.69;4973398;28;20530;-85
2022/06/18 07:53:43;;;;;;;11.17;9.70;;;;;;;22.45;55.96;98926.81;4974674;28;20699;-85
2022/06/18 07:56:10;;;;;;;10.63;9.40;;;;;;;25.08;54.94;99301.59;4974215;28;20188;-85
2022/06/18 07:58:36;;;;;;;10.50;9.17;;;;;;;23.59;55.95;99097.63;4974131;28;20729;-85
2022/06/18 08:01:02;;;;;;;10.23;8.77;;;;;;;26.07;54.91;99401.03;4974265;28;20193;-85
2022/06/18 08:03:27;;;;;;;11.70;9.27;;;;;;;25.99;53.81;99344.06;4974197;28;20224;-84
2022/06/18 08:05:54;;;;;;;11.88;9.18;;;;;;;26.47;52.51;99344.00;4974211;28;20345;-83
2022/06/18 08:08:19;;;;;;;10.75;9.10;;;;;;;25.70;51.86;99162.22;4974159;28;20650;-84
2022/06/18 08:10:47;;;;;;;11.80;9.23;;;;;;;27.36;50.55;99399.97;4974816;28;20168;-85
2022/06/18 08:13:13;;;;;;;10.07;8.65;;;;;;;25.40;50.08;99046.16;4976802;28;20579;-84
2022/06/18 08:15:38;;;;;;;9.60;8.45;;;;;;;25.46;50.67;99038.25;4973982;28;20206;-85
2022/06/18 08:18:04;;;;;;;12.35;8.82;;;;;;;27.85;49.55;99407.47;4973822;28;20660;-85
2022/06/18 08:20:30;;;;;;;12.75;8.93;;;;;;;28.02;48.77;99394.88;4972508;28;20693;-85
2022/06/18 08:22:57;;;;;;;9.93;8.93;;;;;;;28.22;48.54;99422.97;4972464;28;20174;-86
2022/06/18 08:25:26;;;;;;;9.60;8.48;;;;;;;28.70;46.98;99401.69;4973835;28;20527;-86
2022/06/18 08:27:52;;;;;;;9.90;7.97;;;;;;;27.53;45.45;99158.56;4973533;28;20199;-85
2022/06/18 08:30:18;;;;;;;10.35;8.05;;;;;;;28.83;44.66;99296.16;4973438;28;20205;-85
2022/06/18 08:32:45;;;;;;;10.32;9.32;;;;;;;28.13;44.12;99151.63;4973877;28;20175;-85
2022/06/18 08:35:11;;;;;;;12.00;9.27;;;;;;;29.76;43.79;99383.47;4973923;28;20267;-84
2022/06/18 08:37:38;;;;;;;14.88;9.82;;;;;;;28.56;44.11;99184.06;4974362;28;20191;-85
2022/06/18 08:40:37;;;;;;;9.68;8.70;;;;;;;29.30;44.89;99292.88;4973457;28;20335;-85
2022/06/18 08:43:11;;;;;;;10.70;9.60;;;;;;;29.57;45.13;99396.31;4973523;28;20184;-85
2022/06/18 08:45:57;;;;;;;10.40;9.32;;;;;;;28.40;45.69;99287.03;4973209;28;20163;-86
2022/06/18 08:48:37;;;;;;;13.57;9.73;;;;;;;28.84;45.33;99392.56;4972952;28;20168;-85
2022/06/18 08:51:20;;;;;;;12.75;9.20;;;;;;;28.23;46.31;99358.75;4973353;28;20206;-85
2022/06/18 08:54:03;;;;;;;12.48;9.40;;;;;;;28.38;47.38;99399.97;4973046;28;20225;-86
2022/06/18 08:56:29;;;;;;;14.63;9.25;;;;;;;28.33;46.42;99410.50;4973335;28;20210;-85
2022/06/18 08:59:16;;;;;;;9.82;8.80;;;;;;;28.82;45.28;99403.91;4973122;28;20190;-85
2022/06/18 09:02:23;;;;;;;10.73;8.68;;;;;;;29.05;45.20;99371.03;4971253;28;20266;-84
2022/06/18 09:05:24;;;;;;;11.75;9.00;;;;;;;29.12;44.28;99396.00;4895189;29;20202;-85
2022/06/18 09:08:20;;;;;;;11.07;9.40;;;;;;;28.60;44.69;99347.19;4820606;29;20213;-84
2022/06/18 09:10:48;;;;;;;12.40;9.18;;;;;;;28.68;45.96;99399.97;4820902;29;20207;-86
2022/06/18 09:13:20;;;;;;;11.43;9.70;;;;;;;28.12;45.71;99231.47;4821004;29;20203;-86
2022/06/18 09:15:53;;;;;;;10.50;9.40;;;;;;;29.09;45.58;99382.22;4820874;29;20272;-86
2022/06/18 09:18:29;;;;;;;11.68;9.40;;;;;;;28.64;44.45;99260.25;4805471;29;20193;-85
2022/06/18 09:20:58;;;;;;;11.57;10.20;;;;;;;28.88;45.56;99289.03;4820850;29;20180;-86
2022/06/18 09:23:28;;;;;;;12.35;9.63;;;;;;;27.64;44.94;99022.97;4820850;29;20240;-86
2022/06/18 09:25:56;;;;;;;12.55;10.00;;;;;;;29.70;44.75;99375.84;4820753;29;20292;-86
2022/06/18 09:28:31;;;;;;;11.75;10.07;;;;;;;29.42;44.62;99308.09;4820712;29;20578;-91
2022/06/18 09:31:00;;;;;;;10.77;9.68;;;;;;;29.47;43.61;99311.44;4821067;29;20197;-85
2022/06/18 09:33:42;;;;;;;10.38;9.25;;;;;;;29.95;42.88;99396.78;4820763;29;20295;-85
2022/06/18 09:36:17;;;;;;;9.98;9.00;;;;;;;29.86;42.15;99371.84;4820633;29;20626;-86
2022/06/18 09:38:51;;;;;;;10.80;8.95;;;;;;;29.51;41.52;99296.50;4820627;29;20679;-84
2022/06/18 09:41:33;;;;;;;9.98;8.98;;;;;;;30.83;42.13;99429.25;4850895;29;20202;-85
2022/06/18 09:44:21;;;;;;;9.63;8.73;;;;;;;30.80;41.83;99429.38;4911180;28;20230;-85
2022/06/18 09:47:01;;;;;;;10.40;9.25;;;;;;;29.89;42.49;99402.25;4972996;28;20515;-85
2022/06/18 09:49:28;;;;;;;11.25;9.27;;;;;;;28.39;44.76;99285.31;4972323;28;20167;-85
2022/06/18 09:52:08;;;;;;;14.73;10.18;;;;;;;28.65;46.48;99422.69;4972269;28;20163;-85
2022/06/18 09:54:38;;;;;;;12.35;9.63;;;;;;;28.40;46.06;99354.78;4971358;28;20226;-85
2022/06/18 09:57:04;;;;;;;10.32;8.45;;;;;;;27.84;46.33;99436.97;4972546;28;20170;-85
2022/06/18 09:59:34;;;;;;;11.88;7.35;;;;;;;26.14;48.98;99438.97;4972287;28;20747;-84
2022/06/18 10:02:00;;;;;;;11.35;6.68;;;;;;;25.34;49.67;99443.72;4972120;28;20226;-84
2022/06/18 10:07:19;;;;;;;8.53;5.10;;;;;;;24.63;46.69;99377.34;4972559;28;20199;-85
2022/06/18 10:09:50;;;;;;;9.77;5.27;;;;;;;24.95;46.13;99442.53;4972294;28;20647;-84
2022/06/18 10:12:19;;;;;;;8.53;5.00;;;;;;;24.65;46.12;99453.25;4972512;28;20180;-89
2022/06/18 10:14:45;;;;;;;6.60;4.60;;;;;;;21.62;47.63;99042.69;4973255;28;20278;-84
2022/06/18 10:17:37;;;;;;;5.80;4.97;;;;;;;24.01;49.27;99455.66;4978595;28;20517;-84
2022/06/18 10:20:02;;;;;;;10.33;6.67;;;;;;;23.89;54.19;99469.56;4900191;29;20191;-85
2022/06/18 10:22:36;;;;;;;9.53;7.70;;;;;;;23.52;59.20;99477.59;4895007;29;20205;-84
2022/06/18 10:25:42;;;;;;;11.73;8.50;;;;;;;23.64;60.90;99483.56;4887407;29;20191;-85
2022/06/18 10:28:33;;;;;;;10.37;8.47;;;;;;;23.63;62.90;99494.75;4878880;29;20168;-84
2022/06/18 10:31:30;;;;;;;10.00;8.40;;;;;;;23.49;64.68;99514.69;4877938;29;20266;-84
2022/06/18 10:34:11;;;;;;;11.70;8.50;;;;;;;22.59;66.46;99389.44;4878414;29;20259;-85
2022/06/18 10:36:51;;;;;;;9.90;8.70;;;;;;;23.38;66.34;99522.50;4878704;29;20260;-85
2022/06/18 10:39:30;;;;;;;8.83;7.40;;;;;;;23.30;64.38;99531.97;4878233;29;20187;-86
2022/06/18 10:42:22;;;;;;;9.70;7.70;;;;;;;23.63;63.15;99550.78;4879444;29;20650;-85
2022/06/18 10:45:25;;;;;;;7.90;7.10;;;;;;;23.71;62.00;99559.34;4878221;29;20672;-85
2022/06/18 10:47:54;;;;;;;9.83;8.03;;;;;;;23.60;66.89;99572.34;4878389;29;20167;-84
2022/06/18 10:50:22;;;;;;;11.07;8.60;;;;;;;23.53;67.98;99570.66;4880995;29;20201;-84
2022/06/18 10:53:02;;;;;;;14.17;8.60;;;;;;;23.18;68.43;99555.31;4883782;29;20183;-84
2022/06/18 10:55:28;;;;;;;12.40;8.30;;;;;;;23.22;66.82;99567.34;4878984;29;20279;-88
2022/06/18 10:57:54;;;;;;;13.40;9.20;;;;;;;22.08;69.81;99395.66;4956511;28;20683;-84
2022/06/18 11:00:26;;;;;;;11.43;9.87;;;;;;;23.19;72.17;99574.22;4975199;28;20168;-85
2022/06/18 11:02:54;;;;;;;13.57;9.20;;;;;;;21.63;73.08;99358.75;4970026;28;20726;-84
2022/06/18 11:05:37;;;;;;;13.73;9.67;;;;;;;22.98;71.55;99580.34;4994858;28;20593;-84
2022/06/18 11:08:18;;;;;;;14.47;9.90;;;;;;;22.75;75.50;99574.38;4994216;28;20251;-85
2022/06/18 11:10:51;;;;;;;15.57;10.40;;;;;;;20.69;86.38;99527.59;4994738;28;20186;-85
2022/06/18 11:13:27;;;;;;;16.97;9.87;;;;;;;20.53;92.43;99552.41;4994394;28;20245;-85
2022/06/18 11:16:16;;;;;;;13.70;10.00;;;;;;;20.30;96.38;99545.41;4994252;28;20195;-85
2022/06/18 11:18:56;;;;;;;13.93;9.83;;;;;;;20.37;97.49;99549.72;4994720;28;20163;-86
2022/06/18 11:21:43;;;;;;;14.70;10.03;;;;;;;19.09;100.00;99396.16;4994252;28;20160;-86
2022/06/18 11:24:11;;;;;;;15.47;11.00;;;;;;;20.19;100.00;99568.41;4994080;28;20691;-85
2022/06/18 11:26:40;;;;;;;14.93;10.50;;;;;;;19.45;100.00;99389.69;4994122;28;20218;-83
2022/06/18 11:29:20;;;;;;;14.17;11.33;;;;;;;20.64;100.00;99565.31;4992399;28;20245;-84
2022/06/18 11:31:52;;;;;;;15.87;11.13;;;;;;;20.17;100.00;99472.41;4994995;28;20167;-85
2022/06/18 11:34:32;;;;;;;15.20;11.50;;;;;;;20.71;100.00;99563.66;4994329;28;20222;-84
2022/06/18 11:36:59;;;;;;;16.30;12.37;;;;;;;20.13;100.00;99505.81;4994111;28;20167;-85
2022/06/18 11:39:33;;;;;;;18.93;12.50;;;;;;;20.70;100.00;99554.22;4993691;28;20155;-85
2022/06/18 11:42:08;;;;;;;18.00;11.77;;;;;;;20.38;100.00;99487.16;4993551;28;20647;-85
2022/06/18 11:44:46;;;;;;;17.30;12.00;;;;;;;20.84;100.00;99544.84;4993195;28;20155;-85
2022/06/18 11:47:14;;;;;;;16.23;11.53;;;;;;;20.23;100.00;99421.03;4993366;28;20605;-86